createdAt,value
2022-11-24T00:02:18.493Z,96517.38
2022-11-24T00:04:45.006Z,96514.94
2022-11-24T00:07:11.506Z,96520.97
2022-11-24T00:09:37.902Z,96530.41
2022-11-24T00:12:04.504Z,96523.75
2022-11-24T00:14:30.970Z,96525.19
2022-11-24T00:16:57.643Z,96525.19
2022-11-24T00:19:24.041Z,96536.78
2022-11-24T00:21:50.441Z,96532.38
2022-11-24T00:24:16.931Z,96533.34
2022-11-24T00:26:43.394Z,96535.13
2022-11-24T00:29:11.117Z,96528.94
2022-11-24T00:31:38.361Z,96534.34
2022-11-24T00:34:06.226Z,96529.91
2022-11-24T00:36:33.871Z,96535.28
2022-11-24T00:39:02.595Z,96536.28
2022-11-24T00:41:29.723Z,96529.91
2022-11-24T00:43:56.630Z,96531.41
2022-11-24T00:46:24.035Z,96537.28
2022-11-24T00:48:51.103Z,96538.22
2022-11-24T00:51:18.414Z,96547.03
2022-11-24T00:53:45.064Z,96550.63
2022-11-24T00:56:11.874Z,96550.63
2022-11-24T00:58:39.092Z,96558.59
2022-11-24T01:01:07.080Z,96558.47
2022-11-24T01:03:33.745Z,96558.94
2022-11-24T01:06:19.104Z,96566.13
2022-11-24T01:08:45.517Z,96569.53
2022-11-24T01:11:19.308Z,96566.28
2022-11-24T01:13:47.213Z,96571.19
2022-11-24T01:16:15.421Z,96569.53
2022-11-24T01:18:41.927Z,96572.13
2022-11-24T01:21:10.315Z,96583.38
2022-11-24T01:23:36.996Z,96568.72
2022-11-24T01:26:04.135Z,96580.28
2022-11-24T01:28:30.596Z,96584.38
2022-11-24T01:30:58.109Z,96579.44
2022-11-24T01:33:24.620Z,96581.09
2022-11-24T01:35:51.256Z,96591.03
2022-11-24T01:38:17.707Z,96591.69
2022-11-24T01:40:44.084Z,96594.81
2022-11-24T01:43:21.542Z,96603.41
2022-11-24T01:45:48.184Z,96599.53
2022-11-24T01:48:27.998Z,96610.63
2022-11-24T01:51:08.312Z,96609.50
2022-11-24T01:53:35.490Z,96612.09
2022-11-24T01:56:02.452Z,96620.44
2022-11-24T01:58:31.253Z,96611.81
2022-11-24T02:00:57.994Z,96626.78
2022-11-24T02:03:27.523Z,96628.25
2022-11-24T02:06:07.239Z,96627.44
2022-11-24T02:08:46.601Z,96632.78
2022-11-24T02:11:13.280Z,96631.00
2022-11-24T02:13:41.117Z,96631.84
2022-11-24T02:16:08.756Z,96637.06
2022-11-24T02:18:36.799Z,96638.38
2022-11-24T02:21:03.389Z,96638.22
2022-11-24T02:23:47.502Z,96644.13
2022-11-24T02:26:17.337Z,96649.16
2022-11-24T02:28:44.012Z,96645.72
2022-11-24T02:31:10.748Z,96644.59
2022-11-24T02:33:37.550Z,96644.59
2022-11-24T02:36:04.055Z,96646.41
2022-11-24T02:38:31.986Z,96638.72
2022-11-24T02:40:59.494Z,96641.34
2022-11-24T02:43:28.732Z,96654.38
2022-11-24T02:45:55.447Z,96653.25
2022-11-24T02:48:21.830Z,96644.13
2022-11-24T02:50:48.223Z,96642.69
2022-11-24T02:53:16.937Z,96654.09
2022-11-24T02:55:43.355Z,96655.28
2022-11-24T02:58:09.982Z,96663.44
2022-11-24T03:00:36.419Z,96656.94
2022-11-24T03:03:03.489Z,96668.56
2022-11-24T03:05:29.940Z,96675.91
2022-11-24T03:07:56.448Z,96670.19
2022-11-24T03:10:22.913Z,96678.53
2022-11-24T03:12:49.308Z,96679.84
2022-11-24T03:15:15.976Z,96683.78
2022-11-24T03:17:42.394Z,96676.44
2022-11-24T03:20:09.262Z,96683.00
2022-11-24T03:22:36.473Z,96680.06
2022-11-24T03:25:03.062Z,96675.22
2022-11-24T03:27:30.326Z,96691.50
2022-11-24T03:29:56.720Z,96690.06
2022-11-24T03:32:23.228Z,96687.28
2022-11-24T03:34:49.624Z,96699.06
2022-11-24T03:37:16.098Z,96691.88
2022-11-24T03:39:42.563Z,96699.22
2022-11-24T03:42:08.979Z,96697.44
2022-11-24T03:44:35.630Z,96703.31
2022-11-24T03:47:02.324Z,96695.16
2022-11-24T03:49:28.836Z,96701.03
2022-11-24T03:51:55.243Z,96706.25
2022-11-24T03:54:21.902Z,96707.88
2022-11-24T03:56:48.349Z,96721.59
2022-11-24T03:59:14.768Z,96717.03
2022-11-24T04:01:41.242Z,96716.88
2022-11-24T04:04:09.991Z,96717.53
2022-11-24T04:06:36.369Z,96724.38
2022-11-24T04:09:02.796Z,96733.84
2022-11-24T04:11:47.962Z,96729.28
2022-11-24T04:14:14.410Z,96723.09
2022-11-24T04:16:41.087Z,96725.88
2022-11-24T04:19:07.543Z,96736.16
2022-11-24T04:21:33.915Z,96732.72
2022-11-24T04:24:00.305Z,96738.78
2022-11-24T04:26:27.994Z,96748.41
2022-11-24T04:28:54.393Z,96746.44
2022-11-24T04:31:20.821Z,96750.69
2022-11-24T04:33:47.364Z,96750.53
2022-11-24T04:36:13.733Z,96756.56
2022-11-24T04:39:23.501Z,96755.59
2022-11-24T04:41:26.533Z,96755.44
2022-11-24T04:43:52.921Z,96760.00
2022-11-24T04:46:19.433Z,96767.84
2022-11-24T04:48:45.894Z,96763.59
2022-11-24T04:51:13.420Z,96765.25
2022-11-24T04:53:39.801Z,96773.88
2022-11-24T04:56:06.565Z,96775.53
2022-11-24T04:58:33.232Z,96777.00
2022-11-24T05:00:59.628Z,96778.47
2022-11-24T05:03:26.068Z,96779.47
2022-11-24T05:05:52.483Z,96789.91
2022-11-24T05:08:21.332Z,96792.38
2022-11-24T05:10:50.534Z,96786.16
2022-11-24T05:13:16.931Z,96796.28
2022-11-24T05:15:46.151Z,96796.94
2022-11-24T05:18:13.598Z,96796.63
2022-11-24T05:20:40.055Z,96804.28
2022-11-24T05:23:07.296Z,96806.78
2022-11-24T05:25:34.612Z,96803.16
2022-11-24T05:28:02.130Z,96811.66
2022-11-24T05:30:28.874Z,96815.13
2022-11-24T05:32:55.607Z,96812.50
2022-11-24T05:35:22.037Z,96816.91
2022-11-24T05:37:48.496Z,96817.72
2022-11-24T05:40:15.040Z,96817.72
2022-11-24T05:42:46.683Z,96830.63
2022-11-24T05:45:19.334Z,96828.81
2022-11-24T05:47:46.358Z,96833.25
2022-11-24T05:50:13.815Z,96838.31
2022-11-24T05:52:40.344Z,96837.66
2022-11-24T05:55:07.229Z,96840.94
2022-11-24T05:57:33.666Z,96839.94
2022-11-24T06:00:00.287Z,96842.38
2022-11-24T06:02:27.117Z,96842.22
2022-11-24T06:04:55.595Z,96843.03
2022-11-24T06:07:22.067Z,96849.09
2022-11-24T06:09:48.608Z,96850.06
2022-11-24T06:12:15.010Z,96851.72
2022-11-24T06:14:41.662Z,96853.19
2022-11-24T06:17:09.764Z,96858.56
2022-11-24T06:19:41.518Z,96852.38
2022-11-24T06:22:08.432Z,96858.56
2022-11-24T06:24:35.004Z,96860.22
2022-11-24T06:27:02.266Z,96865.47
2022-11-24T06:29:28.716Z,96872.47
2022-11-24T06:31:55.234Z,96881.94
2022-11-24T06:34:21.663Z,96887.34
2022-11-24T06:36:48.162Z,96884.72
2022-11-24T06:39:14.679Z,96880.16
2022-11-24T06:41:41.120Z,96883.75
2022-11-24T06:44:07.628Z,96883.75
2022-11-24T06:46:34.165Z,96883.94
2022-11-24T06:49:00.639Z,96884.72
2022-11-24T06:51:27.963Z,96892.72
2022-11-24T06:53:54.930Z,96896.16
2022-11-24T06:56:21.790Z,96900.41
2022-11-24T06:58:49.294Z,96901.06
2022-11-24T07:01:16.615Z,96897.63
2022-11-24T07:03:43.257Z,96892.41
2022-11-24T07:06:09.793Z,96893.91
2022-11-24T07:08:36.206Z,96892.41
2022-11-24T07:11:06.544Z,96897.47
2022-11-24T07:13:32.977Z,96894.84
2022-11-24T07:15:59.938Z,96901.41
2022-11-24T07:18:26.424Z,96904.34
2022-11-24T07:20:52.858Z,96899.13
2022-11-24T07:23:19.268Z,96911.53
2022-11-24T07:25:45.722Z,96914.13
2022-11-24T07:28:12.145Z,96923.09
2022-11-24T07:30:38.567Z,96919.03
2022-11-24T07:33:04.978Z,96926.38
2022-11-24T07:35:31.434Z,96923.41
2022-11-24T07:37:58.327Z,96931.41
2022-11-24T07:40:26.054Z,96930.75
2022-11-24T07:42:52.763Z,96936.13
2022-11-24T07:45:19.141Z,96940.03
2022-11-24T07:47:45.671Z,96939.19
2022-11-24T07:50:12.906Z,96939.88
2022-11-24T07:52:39.520Z,96942.16
2022-11-24T07:55:06.337Z,96946.13
2022-11-24T07:57:32.749Z,96938.69
2022-11-24T07:59:59.209Z,96939.03
2022-11-24T08:02:25.659Z,96949.72
2022-11-24T08:04:52.436Z,96937.94
2022-11-24T08:07:18.947Z,96946.13
2022-11-24T08:09:45.375Z,96940.06
2022-11-24T08:12:11.764Z,96939.59
2022-11-24T08:14:38.254Z,96936.31
2022-11-24T08:17:04.683Z,96940.41
2022-11-24T08:19:32.212Z,96948.25
2022-11-24T08:21:58.642Z,96952.19
2022-11-24T08:24:25.093Z,96957.94
2022-11-24T08:26:51.494Z,96942.72
2022-11-24T08:29:18.050Z,96951.56
2022-11-24T08:31:44.547Z,96946.31
2022-11-24T08:34:11.067Z,96952.72
2022-11-24T08:36:37.705Z,96944.84
2022-11-24T08:39:04.410Z,96949.41
2022-11-24T08:41:31.157Z,96949.25
2022-11-24T08:43:57.608Z,96953.31
2022-11-24T08:46:24.227Z,96949.88
2022-11-24T08:48:52.594Z,96952.66
2022-11-24T08:51:20.838Z,96951.19
2022-11-24T08:53:47.497Z,96957.03
2022-11-24T08:56:14.278Z,96950.16
2022-11-24T08:58:41.129Z,96955.53
2022-11-24T09:01:12.439Z,96951.88
2022-11-24T09:03:42.343Z,96949.88
2022-11-24T09:06:12.908Z,96958.06
2022-11-24T09:08:39.716Z,96963.94
2022-11-24T09:11:07.652Z,96966.06
2022-11-24T09:13:34.422Z,96965.19
2022-11-24T09:16:05.315Z,96963.69
2022-11-24T09:18:31.779Z,96971.22
2022-11-24T09:21:08.164Z,96966.25
2022-11-24T09:23:34.887Z,96966.91
2022-11-24T09:26:11.894Z,96966.44
2022-11-24T09:28:38.522Z,96968.59
2022-11-24T09:31:06.449Z,96973.22
2022-11-24T09:33:33.336Z,96975.66
2022-11-24T09:36:00.058Z,96977.28
2022-11-24T09:38:26.724Z,96978.13
2022-11-24T09:40:56.130Z,96980.56
2022-11-24T09:43:22.509Z,96978.41
2022-11-24T09:46:08.724Z,96977.94
2022-11-24T09:48:38.948Z,96974.97
2022-11-24T09:51:11.671Z,96987.56
2022-11-24T09:53:42.232Z,96982.00
2022-11-24T09:56:14.615Z,96976.38
2022-11-24T09:58:40.961Z,96975.69
2022-11-24T10:01:11.952Z,96974.19
2022-11-24T10:03:41.820Z,96982.19
2022-11-24T10:06:34.816Z,96986.28
2022-11-24T10:09:01.194Z,96978.41
2022-11-24T10:11:34.785Z,96986.47
2022-11-24T10:14:13.467Z,96976.81
2022-11-24T10:16:43.031Z,96985.16
2022-11-24T10:19:14.931Z,96987.78
2022-11-24T10:21:53.869Z,96992.22
2022-11-24T10:24:39.938Z,96991.44
2022-11-24T10:27:21.978Z,96991.31
2022-11-24T10:29:51.062Z,96986.91
2022-11-24T10:32:20.335Z,96998.53
2022-11-24T10:34:49.975Z,96990.19
2022-11-24T10:37:34.960Z,97003.16
2022-11-24T10:40:04.476Z,97002.22
2022-11-24T10:42:31.973Z,96997.81
2022-11-24T10:44:59.351Z,96989.75
2022-11-24T10:47:25.762Z,96998.09
2022-11-24T10:49:58.042Z,97000.78
2022-11-24T10:52:24.804Z,97009.63
2022-11-24T10:54:58.733Z,97010.44
2022-11-24T10:57:35.853Z,97011.44
2022-11-24T11:00:04.711Z,97062.63
2022-11-24T11:02:39.095Z,97009.19
2022-11-24T11:05:24.117Z,97018.88
2022-11-24T11:07:50.597Z,97015.09
2022-11-24T11:10:19.041Z,97004.41
2022-11-24T11:12:45.885Z,97007.03
2022-11-24T11:15:31.242Z,97006.56
2022-11-24T11:17:59.330Z,97009.34
2022-11-24T11:20:28.645Z,97008.53
2022-11-24T11:22:56.276Z,97011.63
2022-11-24T11:25:25.675Z,97002.13
2022-11-24T11:28:14.971Z,97001.31
2022-11-24T11:31:17.365Z,97002.97
2022-11-24T11:34:03.667Z,97011.00
2022-11-24T11:36:32.473Z,97004.81
2022-11-24T11:38:59.026Z,97007.13
2022-11-24T11:41:31.512Z,97012.84
2022-11-24T11:44:21.410Z,97010.06
2022-11-24T11:46:48.015Z,97019.56
2022-11-24T11:49:14.476Z,97017.91
2022-11-24T11:51:47.148Z,97007.59
2022-11-24T11:54:32.770Z,97023.84
2022-11-24T11:57:07.684Z,97012.53
2022-11-24T11:59:37.345Z,97023.19
2022-11-24T12:02:16.082Z,97021.06
2022-11-24T12:04:42.567Z,97026.13
2022-11-24T12:07:27.878Z,97036.97
2022-11-24T12:10:01.535Z,97028.63
2022-11-24T12:12:37.396Z,97033.88
2022-11-24T12:15:12.151Z,97034.19
2022-11-24T12:17:38.586Z,97034.38
2022-11-24T12:20:22.724Z,97034.06
2022-11-24T12:22:51.905Z,97041.09
2022-11-24T12:25:18.355Z,97038.81
2022-11-24T12:27:59.510Z,97044.22
2022-11-24T12:30:29.810Z,97045.03
2022-11-24T12:33:15.365Z,97047.81
2022-11-24T12:35:46.433Z,97046.31
2022-11-24T12:38:16.096Z,97045.03
2022-11-24T12:40:47.284Z,97047.00
2022-11-24T12:43:26.864Z,97045.34
2022-11-24T12:46:17.415Z,97047.81
2022-11-24T12:48:44.217Z,97048.97
2022-11-24T12:51:30.847Z,97043.88
2022-11-24T12:53:59.129Z,97047.81
2022-11-24T12:56:31.261Z,97046.66
2022-11-24T12:59:03.498Z,97050.28
2022-11-24T13:01:35.164Z,97048.47
2022-11-24T13:04:02.371Z,97050.28
2022-11-24T13:06:49.014Z,97060.09
2022-11-24T13:09:16.383Z,97056.66
2022-11-24T13:11:52.964Z,97058.13
2022-11-24T13:14:32.573Z,97055.03
2022-11-24T13:19:46.907Z,97057.16
2022-11-24T13:22:15.929Z,97056.66
2022-11-24T13:24:42.980Z,97059.47
2022-11-24T13:27:15.288Z,97068.44
2022-11-24T13:29:42.946Z,97068.13
2022-11-24T13:32:10.719Z,97070.59
2022-11-24T13:34:43.290Z,97073.22
2022-11-24T13:37:31.898Z,97075.50
2022-11-24T13:40:11.554Z,97076.47
2022-11-24T13:42:56.476Z,97075.97
2022-11-24T13:45:41.416Z,97077.94
2022-11-24T13:48:20.674Z,97091.03
2022-11-24T13:50:50.892Z,97096.47
2022-11-24T13:53:17.527Z,97089.75
2022-11-24T13:55:54.944Z,97093.88
2022-11-24T13:58:21.368Z,97089.59
2022-11-24T14:01:07.554Z,97091.41
2022-11-24T14:04:07.205Z,97096.00
2022-11-24T14:06:44.901Z,97097.44
2022-11-24T14:09:29.595Z,97107.13
2022-11-24T14:12:16.308Z,97107.94
2022-11-24T14:14:44.319Z,97104.69
2022-11-24T14:17:15.285Z,97113.69
2022-11-24T14:19:42.717Z,97116.47
2022-11-24T14:22:14.864Z,97118.09
2022-11-24T14:24:45.258Z,97117.31
2022-11-24T14:27:16.816Z,97126.47
2022-11-24T14:29:54.527Z,97123.19
2022-11-24T14:32:21.939Z,97123.34
2022-11-24T14:34:48.490Z,97132.06
2022-11-24T14:37:15.550Z,97131.22
2022-11-24T14:39:42.489Z,97129.44
2022-11-24T14:42:18.115Z,97134.84
2022-11-24T14:44:56.272Z,97128.94
2022-11-24T14:47:30.610Z,97134.63
2022-11-24T14:50:05.552Z,97136.63
2022-11-24T14:52:32.040Z,97136.91
2022-11-24T14:55:21.258Z,97133.81
2022-11-24T14:57:48.582Z,97146.72
2022-11-24T15:00:19.408Z,97154.06
2022-11-24T15:02:48.462Z,97158.97
2022-11-24T15:05:15.665Z,97162.91
2022-11-24T15:07:46.583Z,97170.41
2022-11-24T15:10:20.822Z,97175.75
2022-11-24T15:13:07.252Z,97167.25
2022-11-24T15:15:35.360Z,97172.81
2022-11-24T15:18:02.623Z,97174.63
2022-11-24T15:20:42.874Z,97178.88
2022-11-24T15:23:19.914Z,97171.84
2022-11-24T15:25:46.406Z,97176.25
2022-11-24T15:28:12.846Z,97175.41
2022-11-24T15:30:39.426Z,97178.03
2022-11-24T15:33:16.486Z,97180.81
2022-11-24T15:35:43.180Z,97188.84
2022-11-24T15:38:09.872Z,97189.81
2022-11-24T15:40:39.998Z,97190.78
2022-11-24T15:43:12.404Z,97197.00
2022-11-24T15:45:39.357Z,97198.81
2022-11-24T15:48:06.026Z,97203.69
2022-11-24T15:50:33.055Z,97210.72
2022-11-24T15:53:01.824Z,97211.69
2022-11-24T15:55:28.267Z,97210.19
2022-11-24T15:57:54.806Z,97207.91
2022-11-24T16:00:22.656Z,97213.47
2022-11-24T16:02:49.456Z,97215.41
2022-11-24T16:05:16.489Z,97219.16
2022-11-24T16:07:42.972Z,97222.75
2022-11-24T16:10:18.036Z,97226.50
2022-11-24T16:12:44.416Z,97225.00
2022-11-24T16:15:10.805Z,97232.34
2022-11-24T16:17:37.155Z,97234.28
2022-11-24T16:20:03.719Z,97238.06
2022-11-24T16:22:30.167Z,97242.78
2022-11-24T16:24:56.620Z,97241.78
2022-11-24T16:27:23.203Z,97248.84
2022-11-24T16:29:49.595Z,97250.47
2022-11-24T16:32:16.032Z,97259.31
2022-11-24T16:34:42.417Z,97255.84
2022-11-24T16:37:11.285Z,97263.56
2022-11-24T16:39:37.695Z,97263.56
2022-11-24T16:42:04.219Z,97256.97
2022-11-24T16:44:30.590Z,97264.81
2022-11-24T16:46:57.155Z,97257.97
2022-11-24T16:49:23.590Z,97256.75
2022-11-24T16:51:50.030Z,97252.00
2022-11-24T16:54:16.453Z,97248.03
2022-11-24T16:56:42.820Z,97250.59
2022-11-24T16:59:09.703Z,97256.28
2022-11-24T17:01:36.252Z,97246.28
2022-11-24T17:04:05.112Z,97254.28
2022-11-24T17:06:35.023Z,97251.97
2022-11-24T17:09:01.678Z,97259.44
2022-11-24T17:11:28.500Z,97264.94
2022-11-24T17:13:56.356Z,97271.16
2022-11-24T17:16:23.637Z,97274.25
2022-11-24T17:18:50.384Z,97272.88
2022-11-24T17:21:21.219Z,97282.25
2022-11-24T17:23:47.969Z,97281.41
2022-11-24T17:26:15.620Z,97286.63
2022-11-24T17:28:42.365Z,97281.56
2022-11-24T17:31:29.142Z,97289.56
2022-11-24T17:33:56.946Z,97287.75
2022-11-24T17:36:23.501Z,97291.88
2022-11-24T17:38:50.538Z,97303.81
2022-11-24T17:41:17.719Z,97159.25
2022-11-24T17:43:44.085Z,97300.06
2022-11-24T17:46:10.621Z,97291.41
2022-11-24T17:48:37.065Z,97297.47
2022-11-24T17:51:03.444Z,97300.22
2022-11-24T17:53:30.342Z,97308.88
2022-11-24T17:56:00.805Z,97306.56
2022-11-24T17:58:28.701Z,97311.13
2022-11-24T18:00:55.258Z,97321.72
2022-11-24T18:03:21.778Z,97312.09
2022-11-24T18:05:48.581Z,97315.69
2022-11-24T18:08:15.131Z,97320.94
2022-11-24T18:10:41.530Z,97310.31
2022-11-24T18:13:07.988Z,97320.63
2022-11-24T18:15:34.984Z,97326.69
2022-11-24T18:18:02.010Z,97321.47
2022-11-24T18:20:31.165Z,97326.69
2022-11-24T18:23:05.665Z,97320.78
2022-11-24T18:25:33.229Z,97324.19
2022-11-24T18:27:59.831Z,97327.94
2022-11-24T18:30:26.226Z,97324.66
2022-11-24T18:32:52.616Z,97323.81
2022-11-24T18:35:19.045Z,97336.22
2022-11-24T18:37:45.479Z,97326.88
2022-11-24T18:40:11.996Z,97327.19
2022-11-24T18:42:38.454Z,97329.94
2022-11-24T18:45:05.342Z,97325.00
2022-11-24T18:47:31.754Z,97321.56
2022-11-24T18:50:00.193Z,97322.69
2022-11-24T18:52:27.547Z,97323.50
2022-11-24T18:54:53.921Z,97326.97
2022-11-24T18:57:20.363Z,97327.91
2022-11-24T18:59:46.762Z,97320.06
2022-11-24T19:02:13.221Z,97321.72
2022-11-24T19:04:39.776Z,97317.44
2022-11-24T19:07:06.193Z,97328.22
2022-11-24T19:09:32.596Z,97324.75
2022-11-24T19:11:59.988Z,97325.59
2022-11-24T19:14:27.520Z,97337.03
2022-11-24T19:16:55.114Z,97323.13
2022-11-24T19:19:21.560Z,97335.22
2022-11-24T19:21:47.975Z,97330.00
2022-11-24T19:24:14.396Z,97333.88
2022-11-24T19:26:40.985Z,97331.81
2022-11-24T19:29:07.622Z,97338.81
2022-11-24T19:31:34.519Z,97339.91
2022-11-24T19:34:02.973Z,97342.69
2022-11-24T19:36:29.829Z,97342.81
2022-11-24T19:38:58.195Z,97345.59
2022-11-24T19:41:26.489Z,97345.88
2022-11-24T19:43:56.620Z,97345.88
2022-11-24T19:46:26.195Z,97342.75
2022-11-24T19:48:57.085Z,97351.38
2022-11-24T19:51:25.432Z,97353.88
2022-11-24T19:53:52.404Z,97352.22
2022-11-24T19:56:20.030Z,97359.22
2022-11-24T19:58:47.058Z,97352.66
2022-11-24T20:01:14.967Z,97356.91
2022-11-24T20:03:42.376Z,97363.25
2022-11-24T20:06:09.854Z,97362.44
2022-11-24T20:08:36.933Z,97365.19
2022-11-24T20:11:07.661Z,97364.50
2022-11-24T20:13:34.634Z,97367.72
2022-11-24T20:16:05.395Z,97369.47
2022-11-24T20:18:35.229Z,97364.41
2022-11-24T20:21:05.049Z,97368.81
2022-11-24T20:23:31.523Z,97373.88
2022-11-24T20:26:04.245Z,97377.31
2022-11-24T20:28:30.873Z,97371.25
2022-11-24T20:31:00.546Z,97370.31
2022-11-24T20:33:27.538Z,97375.53
2022-11-24T20:35:53.926Z,97375.66
2022-11-24T20:38:20.420Z,97376.50
2022-11-24T20:40:46.795Z,97376.34
2022-11-24T20:43:14.671Z,97382.25
2022-11-24T20:45:41.161Z,97375.41
2022-11-24T20:48:07.646Z,97377.16
2022-11-24T20:50:35.847Z,97376.19
2022-11-24T20:53:02.553Z,97372.94
2022-11-24T20:55:28.939Z,97373.03
2022-11-24T20:57:55.352Z,97371.25
2022-11-24T21:00:21.815Z,97367.03
2022-11-24T21:02:48.672Z,97367.31
2022-11-24T21:05:15.185Z,97370.19
2022-11-24T21:07:41.849Z,97371.47
2022-11-24T21:10:08.447Z,97375.13
2022-11-24T21:12:34.859Z,97372.00
2022-11-24T21:15:01.332Z,97378.34
2022-11-24T21:17:28.403Z,97368.84
2022-11-24T21:19:59.677Z,97381.19
2022-11-24T21:22:28.465Z,97383.97
2022-11-24T21:24:54.938Z,97380.56
2022-11-24T21:27:21.297Z,97380.81
2022-11-24T21:29:47.730Z,97378.34
2022-11-24T21:32:14.105Z,97385.63
2022-11-24T21:34:40.545Z,97382.47
2022-11-24T21:37:07.262Z,97386.91
2022-11-24T21:39:34.375Z,97387.06
2022-11-24T21:42:00.812Z,97386.34
2022-11-24T21:44:29.569Z,97387.16
2022-11-24T21:46:56.398Z,97379.22
2022-11-24T21:49:22.861Z,97378.53
2022-11-24T21:51:55.182Z,97392.28
2022-11-24T21:54:22.186Z,97381.00
2022-11-24T21:56:48.608Z,97384.44
2022-11-24T21:59:14.995Z,97382.63
2022-11-24T22:01:41.682Z,97394.06
2022-11-24T22:04:09.143Z,97385.53
2022-11-24T22:06:35.522Z,97391.72
2022-11-24T22:09:01.990Z,97389.91
2022-11-24T22:11:28.411Z,97387.44
2022-11-24T22:13:54.863Z,97393.50
2022-11-24T22:16:22.534Z,97393.50
2022-11-24T22:18:49.506Z,97391.97
2022-11-24T22:21:20.302Z,97396.41
2022-11-24T22:23:50.346Z,97403.69
2022-11-24T22:26:18.279Z,97392.69
2022-11-24T22:28:44.974Z,97386.66
2022-11-24T22:31:21.790Z,97397.38
2022-11-24T22:33:48.427Z,97394.75
2022-11-24T22:36:15.732Z,97393.25
2022-11-24T22:38:42.951Z,97394.38
2022-11-24T22:41:11.041Z,97396.81
2022-11-24T22:43:38.612Z,97396.84
2022-11-24T22:46:10.944Z,97394.25
2022-11-24T22:48:38.110Z,97392.75
2022-11-24T22:51:08.767Z,97396.16
2022-11-24T22:53:35.230Z,97390.97
2022-11-24T22:56:06.072Z,97400.53
2022-11-24T22:58:33.267Z,97398.88
2022-11-24T23:01:06.222Z,97397.22
2022-11-24T23:03:36.099Z,97401.59
2022-11-24T23:06:04.562Z,97400.03
2022-11-24T23:08:34.211Z,97400.13
2022-11-24T23:11:01.280Z,97396.53
2022-11-24T23:13:27.835Z,97395.53
2022-11-24T23:15:59.126Z,97399.75
2022-11-24T23:18:25.566Z,97401.38
2022-11-24T23:20:51.957Z,97396.00
2022-11-24T23:23:18.395Z,97399.22
2022-11-24T23:25:44.851Z,97391.25
2022-11-24T23:28:11.253Z,97388.22
2022-11-24T23:30:37.733Z,97387.78
2022-11-24T23:33:04.219Z,97382.00
2022-11-24T23:35:30.607Z,97387.47
2022-11-24T23:38:07.313Z,97378.25
2022-11-24T23:40:34.391Z,97382.06
2022-11-24T23:43:00.960Z,97377.13
2022-11-24T23:45:27.420Z,97378.22
2022-11-24T23:47:53.979Z,97379.16
2022-11-24T23:50:20.457Z,97379.41
2022-11-24T23:52:46.791Z,97377.50
2022-11-24T23:55:13.246Z,97420.88
2022-11-24T23:57:39.735Z,97382.84
